Time;durP1;ratioP1;P1;durP2;ratioP2;P2;SDS_P1;SDS_P2;PMS_P1;PMS_P2;Temp;Humidity;BMP_temperature;BMP_pressure;BME280_temperature;BME280_humidity;BME280_pressure;Samples;Min_cycle;Max_cycle;Signal;HPM_P1;HPM_P2
2022/10/29 00:00:18;;;;;;;;;;;23.50;62.20;;;;;;1547357;75;704;-59
2022/10/29 00:02:20;;;;;;;;;;;23.50;62.30;;;;;;1549076;75;748;-57
2022/10/29 00:04:22;;;;;;;;;;;23.50;62.20;;;;;;1547761;74;1946;-58
2022/10/29 00:06:24;;;;;;;;;;;23.40;62.20;;;;;;1554135;75;1113;-59
2022/10/29 00:08:26;;;;;;;;;;;23.50;62.30;;;;;;1550240;75;1049;-60
2022/10/29 00:10:28;;;;;;;;;;;23.50;62.20;;;;;;1551272;75;1673;-59
2022/10/29 00:12:30;;;;;;;;;;;23.50;62.10;;;;;;1563324;75;757;-59
2022/10/29 00:14:32;;;;;;;;;;;23.50;62.00;;;;;;1551881;75;748;-59
2022/10/29 00:16:37;;;;;;;;;;;23.50;62.00;;;;;;1551755;75;1190;-56
2022/10/29 00:18:39;;;;;;;;;;;23.50;62.00;;;;;;1543304;75;703;-55
2022/10/29 00:20:41;;;;;;;;;;;23.50;62.00;;;;;;1554701;75;723;-58
2022/10/29 00:22:43;;;;;;;;;;;23.50;62.00;;;;;;1549032;75;710;-59
2022/10/29 00:24:45;;;;;;;;;;;23.50;62.00;;;;;;1537553;75;1953;-59
2022/10/29 00:26:47;;;;;;;;;;;23.50;61.90;;;;;;1543235;75;1125;-59
2022/10/29 00:28:50;;;;;;;;;;;23.50;61.90;;;;;;1547680;75;745;-59
2022/10/29 00:30:52;;;;;;;;;;;23.50;61.80;;;;;;1540184;75;671;-56
2022/10/29 00:32:54;;;;;;;;;;;23.50;61.80;;;;;;1544723;75;718;-60
2022/10/29 00:34:56;;;;;;;;;;;23.50;61.90;;;;;;1542208;75;807;-59
2022/10/29 00:36:58;;;;;;;;;;;23.50;61.80;;;;;;1542300;75;1600;-59
2022/10/29 00:38:59;;;;;;;;;;;23.50;61.90;;;;;;1548286;75;771;-58
2022/10/29 00:41:02;;;;;;;;;;;23.50;62.00;;;;;;1546762;75;767;-59
2022/10/29 00:43:15;;;;;;;;;;;23.50;62.00;;;;;;1550264;75;813;-59
2022/10/29 00:45:18;;;;;;;;;;;23.50;62.00;;;;;;1545259;75;1954;-59
2022/10/29 00:47:21;;;;;;;;;;;23.50;62.00;;;;;;1550992;75;1094;-57
2022/10/29 00:49:23;;;;;;;;;;;23.50;62.10;;;;;;1561612;75;751;-59
2022/10/29 00:51:25;;;;;;;;;;;23.50;62.00;;;;;;1540975;75;1540;-60
2022/10/29 00:53:28;;;;;;;;;;;23.60;62.00;;;;;;1554432;75;780;-60
2022/10/29 00:55:30;;;;;;;;;;;23.50;61.90;;;;;;1552583;75;871;-59
2022/10/29 00:57:39;;;;;;;;;;;23.60;61.70;;;;;;1541910;75;1078;-59
2022/10/29 00:59:41;;;;;;;;;;;23.60;61.70;;;;;;1551131;75;1915;-56
2022/10/29 01:01:44;;;;;;;;;;;23.60;61.70;;;;;;1551160;75;669;-58
2022/10/29 01:03:46;;;;;;;;;;;23.60;61.60;;;;;;1538742;75;860;-60
2022/10/29 01:05:47;;;;;;;;;;;23.60;61.50;;;;;;1563124;75;1947;-58
2022/10/29 01:07:49;;;;;;;;;;;23.60;61.50;;;;;;1540825;75;1103;-57
2022/10/29 01:09:51;;;;;;;;;;;23.60;61.50;;;;;;1570754;74;771;-58
2022/10/29 01:11:58;;;;;;;;;;;23.60;61.50;;;;;;1553653;74;801;-56
2022/10/29 01:14:01;;;;;;;;;;;23.60;61.60;;;;;;1558691;74;1892;-59
2022/10/29 01:16:05;;;;;;;;;;;23.50;61.80;;;;;;1558552;74;1149;-60
2022/10/29 01:18:11;;;;;;;;;;;23.50;61.70;;;;;;1544925;74;742;-60
2022/10/29 01:20:31;;;;;;;;;;;23.50;61.80;;;;;;1534237;74;1671;-59
2022/10/29 01:22:37;;;;;;;;;;;23.50;61.80;;;;;;1564807;74;733;-59
2022/10/29 01:24:44;;;;;;;;;;;23.50;61.90;;;;;;1564592;74;1954;-60
2022/10/29 01:27:04;;;;;;;;;;;23.40;61.80;;;;;;1553461;74;1134;-55
2022/10/29 01:29:19;;;;;;;;;;;23.50;61.90;;;;;;1551964;74;692;-58
2022/10/29 01:31:23;;;;;;;;;;;23.40;61.80;;;;;;1565426;74;764;-57
2022/10/29 01:33:26;;;;;;;;;;;23.50;61.90;;;;;;1550006;74;1815;-57
2022/10/29 01:35:33;;;;;;;;;;;23.50;61.80;;;;;;1556187;75;2062;-60
2022/10/29 01:37:40;;;;;;;;;;;23.60;61.70;;;;;;1556510;74;1114;-60
2022/10/29 01:39:43;;;;;;;;;;;23.50;61.60;;;;;;1561224;74;1834;-59
2022/10/29 01:41:58;;;;;;;;;;;23.60;61.50;;;;;;1570688;74;722;-60
2022/10/29 01:44:05;;;;;;;;;;;23.60;61.30;;;;;;1554303;74;1437;-57
2022/10/29 01:46:11;;;;;;;;;;;23.60;61.30;;;;;;1563939;74;1943;-58
2022/10/29 01:48:13;;;;;;;;;;;23.60;61.10;;;;;;1564277;74;1565;-60
2022/10/29 01:50:17;;;;;;;;;;;23.70;61.10;;;;;;1565018;74;755;-58
2022/10/29 01:52:19;;;;;;;;;;;23.70;60.90;;;;;;1560675;74;780;-59
2022/10/29 01:54:21;;;;;;;;;;;23.70;60.90;;;;;;1553212;74;688;-60
2022/10/29 01:56:23;;;;;;;;;;;23.70;60.90;;;;;;1557795;74;1161;-60
2022/10/29 01:58:25;;;;;;;;;;;23.70;61.00;;;;;;1553157;74;731;-59
2022/10/29 02:00:26;;;;;;;;;;;23.70;61.00;;;;;;1556296;74;755;-59
2022/10/29 02:02:48;;;;;;;;;;;23.70;61.10;;;;;;1567956;74;1512;-58
2022/10/29 02:04:55;;;;;;;;;;;23.60;61.10;;;;;;1556190;74;1938;-58
2022/10/29 02:06:58;;;;;;;;;;;23.60;61.20;;;;;;1524572;74;1117;-58
2022/10/29 02:09:02;;;;;;;;;;;23.60;61.30;;;;;;1555965;74;1113;-58
2022/10/29 02:11:08;;;;;;;;;;;23.60;61.20;;;;;;1545640;75;777;-59
2022/10/29 02:13:10;;;;;;;;;;;23.60;61.10;;;;;;1547693;75;721;-59
2022/10/29 02:15:13;;;;;;;;;;;23.60;61.20;;;;;;1533992;75;748;-59
2022/10/29 02:17:14;;;;;;;;;;;23.60;61.20;;;;;;1545560;76;1443;-59
2022/10/29 02:19:16;;;;;;;;;;;23.50;61.20;;;;;;1547056;75;675;-58
2022/10/29 02:21:18;;;;;;;;;;;23.60;61.20;;;;;;1549820;75;798;-59
2022/10/29 02:23:20;;;;;;;;;;;23.60;61.30;;;;;;1548450;75;779;-59
2022/10/29 02:25:22;;;;;;;;;;;23.50;61.30;;;;;;1539503;76;1933;-58
2022/10/29 02:27:24;;;;;;;;;;;23.60;61.30;;;;;;1549564;76;1139;-58
2022/10/29 02:29:26;;;;;;;;;;;23.50;61.30;;;;;;1552639;75;792;-59
2022/10/29 02:31:28;;;;;;;;;;;23.50;61.40;;;;;;1541958;75;798;-59
2022/10/29 02:33:30;;;;;;;;;;;23.50;61.40;;;;;;1534626;75;736;-59
2022/10/29 02:35:32;;;;;;;;;;;23.50;61.40;;;;;;1541715;75;797;-59
2022/10/29 02:37:34;;;;;;;;;;;23.50;61.40;;;;;;1533796;75;1152;-58
2022/10/29 02:39:36;;;;;;;;;;;23.50;61.40;;;;;;1545172;75;694;-59
2022/10/29 02:41:37;;;;;;;;;;;23.50;61.40;;;;;;1551643;75;734;-59
2022/10/29 02:43:39;;;;;;;;;;;23.50;61.50;;;;;;1544222;75;1526;-58
2022/10/29 02:45:41;;;;;;;;;;;23.50;61.50;;;;;;1546029;75;1940;-59
2022/10/29 02:47:43;;;;;;;;;;;23.50;61.40;;;;;;1553469;75;756;-59
2022/10/29 02:49:45;;;;;;;;;;;23.50;61.40;;;;;;1548139;75;722;-59
2022/10/29 02:51:47;;;;;;;;;;;23.50;61.50;;;;;;1550959;75;764;-58
2022/10/29 02:53:49;;;;;;;;;;;23.50;61.60;;;;;;1543497;75;736;-59
2022/10/29 02:55:51;;;;;;;;;;;23.50;61.60;;;;;;1545878;75;1146;-59
2022/10/29 02:57:52;;;;;;;;;;;23.50;61.70;;;;;;1530981;75;1419;-58
2022/10/29 02:59:54;;;;;;;;;;;23.50;61.70;;;;;;1548812;75;732;-60
2022/10/29 03:01:56;;;;;;;;;;;23.50;61.70;;;;;;1549043;75;771;-59
2022/10/29 03:03:58;;;;;;;;;;;23.50;61.50;;;;;;1549279;75;774;-60
2022/10/29 03:06:00;;;;;;;;;;;23.60;61.50;;;;;;1549343;75;1933;-58
2022/10/29 03:08:02;;;;;;;;;;;23.60;61.40;;;;;;1532400;75;742;-58
2022/10/29 03:10:04;;;;;;;;;;;23.60;61.40;;;;;;1552436;75;1061;-59
2022/10/29 03:12:07;;;;;;;;;;;23.60;61.30;;;;;;1541603;75;1556;-60
2022/10/29 03:14:08;;;;;;;;;;;23.60;61.40;;;;;;1538353;75;672;-60
2022/10/29 03:16:10;;;;;;;;;;;23.60;61.40;;;;;;1537181;75;1229;-59
2022/10/29 03:18:12;;;;;;;;;;;23.60;61.50;;;;;;1539297;75;715;-59
2022/10/29 03:20:14;;;;;;;;;;;23.60;61.40;;;;;;1548857;75;792;-58
2022/10/29 03:22:16;;;;;;;;;;;23.60;61.40;;;;;;1546499;75;754;-60
2022/10/29 03:24:18;;;;;;;;;;;23.60;61.50;;;;;;1541408;75;683;-59
2022/10/29 03:26:20;;;;;;;;;;;23.60;61.40;;;;;;1548954;75;1935;-58
2022/10/29 03:28:22;;;;;;;;;;;23.60;61.50;;;;;;1538375;75;763;-59
2022/10/29 03:30:24;;;;;;;;;;;23.50;61.50;;;;;;1541797;75;704;-58
2022/10/29 03:32:26;;;;;;;;;;;23.40;61.50;;;;;;1544844;75;734;-58
2022/10/29 03:34:27;;;;;;;;;;;23.50;61.60;;;;;;1549707;75;690;-58
2022/10/29 03:36:29;;;;;;;;;;;23.50;61.70;;;;;;1549905;75;1139;-59
2022/10/29 03:38:31;;;;;;;;;;;23.50;61.60;;;;;;1548558;75;732;-60
2022/10/29 03:40:33;;;;;;;;;;;23.60;61.60;;;;;;1545007;75;1556;-60
2022/10/29 03:42:35;;;;;;;;;;;23.50;61.50;;;;;;1549720;75;745;-59
2022/10/29 03:44:37;;;;;;;;;;;23.60;61.50;;;;;;1535748;75;738;-59
2022/10/29 03:46:39;;;;;;;;;;;23.50;61.60;;;;;;1551621;75;1932;-59
2022/10/29 03:48:41;;;;;;;;;;;23.50;61.50;;;;;;1554078;75;718;-58
2022/10/29 03:50:42;;;;;;;;;;;23.50;61.50;;;;;;1547995;75;772;-58
2022/10/29 03:52:44;;;;;;;;;;;23.50;61.60;;;;;;1549044;75;781;-58
2022/10/29 03:54:46;;;;;;;;;;;23.50;61.60;;;;;;1541096;75;1587;-59
2022/10/29 03:56:48;;;;;;;;;;;23.50;61.70;;;;;;1538595;75;1122;-59
2022/10/29 03:58:50;;;;;;;;;;;23.50;61.80;;;;;;1543386;75;740;-58
2022/10/29 04:00:55;;;;;;;;;;;23.50;61.70;;;;;;1543419;75;785;-58
2022/10/29 04:02:57;;;;;;;;;;;23.50;61.70;;;;;;1536431;75;771;-59
2022/10/29 04:04:59;;;;;;;;;;;23.50;61.80;;;;;;1550726;75;753;-59
2022/10/29 04:07:01;;;;;;;;;;;23.50;61.60;;;;;;1544096;75;1921;-59
2022/10/29 04:09:03;;;;;;;;;;;23.50;61.70;;;;;;1528679;74;1454;-59
2022/10/29 04:11:05;;;;;;;;;;;23.50;61.70;;;;;;1564986;74;717;-57
2022/10/29 04:13:07;;;;;;;;;;;23.50;61.80;;;;;;1570576;74;644;-59
2022/10/29 04:15:09;;;;;;;;;;;23.50;61.80;;;;;;1547735;74;737;-56
2022/10/29 04:17:11;;;;;;;;;;;23.40;61.70;;;;;;1559291;76;1152;-57
2022/10/29 04:19:13;;;;;;;;;;;23.40;61.80;;;;;;1562973;74;755;-56
2022/10/29 04:21:15;;;;;;;;;;;23.50;61.80;;;;;;1557247;74;800;-60
2022/10/29 04:23:17;;;;;;;;;;;23.50;61.80;;;;;;1551432;74;1349;-58
2022/10/29 04:25:19;;;;;;;;;;;23.50;61.90;;;;;;1545437;74;707;-59
2022/10/29 04:27:21;;;;;;;;;;;23.50;61.80;;;;;;1555046;74;1948;-60
2022/10/29 04:29:22;;;;;;;;;;;23.50;61.70;;;;;;1557327;74;736;-59
2022/10/29 04:31:24;;;;;;;;;;;23.50;61.60;;;;;;1557671;74;712;-60
2022/10/29 04:33:26;;;;;;;;;;;23.60;61.60;;;;;;1557082;74;694;-59
2022/10/29 04:35:28;;;;;;;;;;;23.50;61.70;;;;;;1554982;74;802;-58
2022/10/29 04:37:30;;;;;;;;;;;23.50;61.70;;;;;;1568924;74;1536;-60
2022/10/29 04:39:32;;;;;;;;;;;23.50;61.80;;;;;;1557300;74;791;-59
2022/10/29 04:41:34;;;;;;;;;;;23.50;61.60;;;;;;1562846;74;730;-60
2022/10/29 04:43:35;;;;;;;;;;;23.50;61.60;;;;;;1560887;74;669;-58
2022/10/29 04:45:37;;;;;;;;;;;23.60;61.60;;;;;;1555637;74;1154;-59
2022/10/29 04:47:39;;;;;;;;;;;23.60;61.50;;;;;;1552164;74;1937;-57
2022/10/29 04:49:41;;;;;;;;;;;23.70;61.60;;;;;;1545238;74;751;-56
2022/10/29 04:51:43;;;;;;;;;;;23.50;61.60;;;;;;1554888;74;1595;-59
2022/10/29 04:53:45;;;;;;;;;;;23.50;61.70;;;;;;1551426;74;768;-60
2022/10/29 04:55:47;;;;;;;;;;;23.50;62.00;;;;;;1568532;74;1183;-61
2022/10/29 04:57:49;;;;;;;;;;;23.50;61.80;;;;;;1565818;74;777;-59
2022/10/29 04:59:51;;;;;;;;;;;23.60;61.50;;;;;;1570187;74;819;-60
2022/10/29 05:01:53;;;;;;;;;;;23.60;61.40;;;;;;1568022;74;763;-59
2022/10/29 05:03:54;;;;;;;;;;;23.70;61.30;;;;;;1565677;74;771;-59
2022/10/29 05:05:56;;;;;;;;;;;23.60;61.20;;;;;;1576321;74;1940;-58
2022/10/29 05:07:59;;;;;;;;;;;23.60;61.30;;;;;;1551414;74;681;-61
2022/10/29 05:10:01;;;;;;;;;;;23.60;61.40;;;;;;1559854;74;1085;-56
2022/10/29 05:12:03;;;;;;;;;;;23.70;61.30;;;;;;1538831;75;821;-59
2022/10/29 05:14:05;;;;;;;;;;;23.70;61.10;;;;;;1548292;75;720;-59
2022/10/29 05:16:07;;;;;;;;;;;23.70;61.20;;;;;;1538576;75;1209;-60
2022/10/29 05:18:09;;;;;;;;;;;23.60;61.20;;;;;;1534937;75;743;-59
2022/10/29 05:20:11;;;;;;;;;;;23.60;61.40;;;;;;1545636;75;1725;-60
2022/10/29 05:22:13;;;;;;;;;;;23.60;61.50;;;;;;1543701;75;788;-59
2022/10/29 05:24:15;;;;;;;;;;;23.60;61.60;;;;;;1547289;75;805;-60
2022/10/29 05:26:16;;;;;;;;;;;23.60;61.50;;;;;;1553321;75;1943;-59
2022/10/29 05:28:19;;;;;;;;;;;23.60;61.70;;;;;;1540782;75;732;-57
2022/10/29 05:30:21;;;;;;;;;;;23.60;61.90;;;;;;1538408;75;810;-58
2022/10/29 05:32:23;;;;;;;;;;;23.50;61.90;;;;;;1543389;75;1416;-58
2022/10/29 05:34:25;;;;;;;;;;;23.50;62.30;;;;;;1539023;75;724;-60
2022/10/29 05:36:26;;;;;;;;;;;23.40;62.40;;;;;;1547131;75;1062;-58
2022/10/29 05:38:28;;;;;;;;;;;23.40;62.50;;;;;;1533595;75;698;-57
2022/10/29 05:40:30;;;;;;;;;;;23.50;62.50;;;;;;1543694;75;753;-58
2022/10/29 05:42:32;;;;;;;;;;;23.40;62.70;;;;;;1538037;75;783;-57
2022/10/29 05:44:34;;;;;;;;;;;23.30;62.70;;;;;;1539869;75;676;-56
2022/10/29 05:46:36;;;;;;;;;;;23.30;62.80;;;;;;1550126;75;1956;-60
2022/10/29 05:48:38;;;;;;;;;;;23.30;62.90;;;;;;1553729;75;793;-59
2022/10/29 05:50:39;;;;;;;;;;;23.40;63.00;;;;;;1550296;75;786;-59
2022/10/29 05:52:41;;;;;;;;;;;23.40;62.90;;;;;;1547405;75;756;-59
2022/10/29 05:54:43;;;;;;;;;;;23.40;62.90;;;;;;1548404;75;702;-61
2022/10/29 05:56:45;;;;;;;;;;;23.50;63.00;;;;;;1556653;75;1250;-59
2022/10/29 05:58:50;;;;;;;;;;;23.50;62.50;;;;;;1559971;75;738;-60
2022/10/29 06:00:52;;;;;;;;;;;23.60;62.30;;;;;;1541100;75;1500;-59
2022/10/29 06:02:53;;;;;;;;;;;23.70;61.90;;;;;;1550628;75;769;-60
2022/10/29 06:04:55;;;;;;;;;;;23.80;61.60;;;;;;1543687;75;765;-60
2022/10/29 06:06:57;;;;;;;;;;;23.80;61.40;;;;;;1554270;75;1958;-61
2022/10/29 06:08:59;;;;;;;;;;;23.90;61.30;;;;;;1539589;75;717;-61
2022/10/29 06:11:01;;;;;;;;;;;23.80;61.20;;;;;;1546993;75;1137;-60
2022/10/29 06:13:05;;;;;;;;;;;23.80;61.20;;;;;;1548650;75;738;-61
2022/10/29 06:15:07;;;;;;;;;;;23.80;61.20;;;;;;1549110;75;1722;-59
2022/10/29 06:17:09;;;;;;;;;;;23.80;61.20;;;;;;1543986;75;1208;-61
2022/10/29 06:19:11;;;;;;;;;;;23.70;61.30;;;;;;1545805;75;731;-59
2022/10/29 06:21:13;;;;;;;;;;;23.80;61.20;;;;;;1542757;75;775;-59
2022/10/29 06:23:15;;;;;;;;;;;23.80;61.20;;;;;;1545750;75;786;-57
2022/10/29 06:25:16;;;;;;;;;;;23.80;61.20;;;;;;1543612;75;892;-56
2022/10/29 06:27:18;;;;;;;;;;;23.80;61.30;;;;;;1547708;75;1948;-59
2022/10/29 06:29:20;;;;;;;;;;;23.70;61.30;;;;;;1547161;75;1336;-60
2022/10/29 06:31:22;;;;;;;;;;;23.70;61.30;;;;;;1543522;75;775;-58
2022/10/29 06:33:24;;;;;;;;;;;23.70;61.40;;;;;;1543238;75;703;-61
2022/10/29 06:35:26;;;;;;;;;;;23.60;61.50;;;;;;1543387;75;744;-58
2022/10/29 06:37:32;;;;;;;;;;;23.70;61.60;;;;;;1547852;75;1120;-57
2022/10/29 06:39:31;;;;;;;;;;;23.70;61.60;;;;;;1547812;75;1639;-59
2022/10/29 06:41:33;;;;;;;;;;;23.70;61.60;;;;;;1548927;75;792;-60
2022/10/29 06:43:35;;;;;;;;;;;23.70;61.70;;;;;;1555353;75;1577;-61
2022/10/29 06:45:37;;;;;;;;;;;23.60;61.70;;;;;;1557560;75;847;-57
2022/10/29 06:47:39;;;;;;;;;;;23.70;61.80;;;;;;1546574;75;1955;-58
2022/10/29 06:49:41;;;;;;;;;;;23.60;61.70;;;;;;1551595;75;727;-59
2022/10/29 06:51:43;;;;;;;;;;;23.60;61.70;;;;;;1549800;75;610;-59
2022/10/29 06:53:45;;;;;;;;;;;23.60;61.80;;;;;;1542648;75;745;-59
2022/10/29 06:55:48;;;;;;;;;;;23.50;62.00;;;;;;1546663;75;1155;-60
2022/10/29 06:57:51;;;;;;;;;;;23.60;61.80;;;;;;1548980;75;1557;-59
2022/10/29 06:59:53;;;;;;;;;;;23.60;61.80;;;;;;1566344;75;1830;-59
2022/10/29 07:01:55;;;;;;;;;;;23.50;61.80;;;;;;1546739;75;715;-60
2022/10/29 07:03:57;;;;;;;;;;;23.60;61.80;;;;;;1538468;76;935;-60
2022/10/29 07:05:59;;;;;;;;;;;23.60;61.80;;;;;;1537393;75;1177;-60
2022/10/29 07:08:00;;;;;;;;;;;23.50;61.90;;;;;;1545869;76;1944;-59
2022/10/29 07:10:02;;;;;;;;;;;23.40;61.80;;;;;;1543182;75;814;-58
2022/10/29 07:12:04;;;;;;;;;;;23.30;61.80;;;;;;1521247;75;1574;-60
2022/10/29 07:14:08;;;;;;;;;;;23.40;61.90;;;;;;1533666;77;724;-61
2022/10/29 07:16:10;;;;;;;;;;;23.40;61.90;;;;;;1510643;77;1404;-60
2022/10/29 07:18:11;;;;;;;;;;;23.30;61.90;;;;;;1536909;76;755;-60
2022/10/29 07:20:13;;;;;;;;;;;23.30;61.90;;;;;;1521352;76;693;-58
2022/10/29 07:22:15;;;;;;;;;;;23.30;61.90;;;;;;1512954;77;691;-59
2022/10/29 07:24:17;;;;;;;;;;;23.30;61.90;;;;;;1521275;77;796;-61
2022/10/29 07:26:19;;;;;;;;;;;23.40;61.80;;;;;;1516369;76;1676;-59
2022/10/29 07:28:21;;;;;;;;;;;23.30;61.70;;;;;;1517309;77;1931;-61
2022/10/29 07:30:23;;;;;;;;;;;23.50;61.80;;;;;;1515550;77;785;-60
2022/10/29 07:32:25;;;;;;;;;;;23.40;61.70;;;;;;1499410;76;770;-60
2022/10/29 07:34:27;;;;;;;;;;;23.40;61.80;;;;;;1511495;76;779;-59
2022/10/29 07:36:32;;;;;;;;;;;23.40;61.70;;;;;;1521811;77;1155;-61
2022/10/29 07:38:34;;;;;;;;;;;23.30;61.70;;;;;;1509367;76;758;-61
2022/10/29 07:40:35;;;;;;;;;;;23.30;61.80;;;;;;1512250;77;1535;-60
2022/10/29 07:42:37;;;;;;;;;;;23.30;61.80;;;;;;1515587;76;776;-60
2022/10/29 07:44:39;;;;;;;;;;;23.30;61.80;;;;;;1514068;77;739;-59
2022/10/29 07:46:41;;;;;;;;;;;23.30;61.90;;;;;;1511025;76;1135;-59
2022/10/29 07:48:43;;;;;;;;;;;23.30;61.80;;;;;;1515774;76;1937;-61
2022/10/29 07:50:45;;;;;;;;;;;23.30;61.90;;;;;;1489664;78;769;-60
2022/10/29 07:52:47;;;;;;;;;;;23.30;61.90;;;;;;1462125;79;810;-57
2022/10/29 07:54:48;;;;;;;;;;;23.30;61.90;;;;;;1462763;79;1627;-60
2022/10/29 07:56:53;;;;;;;;;;;23.20;62.00;;;;;;1462644;80;1159;-60
2022/10/29 07:58:55;;;;;;;;;;;23.30;61.90;;;;;;1520206;76;768;-59
2022/10/29 08:00:58;;;;;;;;;;;23.30;61.90;;;;;;1533941;77;742;-58
2022/10/29 08:03:00;;;;;;;;;;;23.30;62.00;;;;;;1516115;76;726;-61
2022/10/29 08:05:02;;;;;;;;;;;23.30;62.00;;;;;;1529945;76;758;-60
2022/10/29 08:07:04;;;;;;;;;;;23.30;62.00;;;;;;1522772;77;1944;-60
2022/10/29 08:09:06;;;;;;;;;;;23.20;61.90;;;;;;1521531;76;708;-60
2022/10/29 08:11:08;;;;;;;;;;;23.30;62.00;;;;;;1518465;76;768;-61
2022/10/29 08:13:10;;;;;;;;;;;23.30;62.00;;;;;;1529332;76;1038;-60
2022/10/29 08:15:11;;;;;;;;;;;23.30;62.00;;;;;;1527721;77;725;-58
2022/10/29 08:17:13;;;;;;;;;;;23.30;62.00;;;;;;1540436;77;1196;-60
2022/10/29 08:19:15;;;;;;;;;;;23.20;61.90;;;;;;1530157;77;750;-61
2022/10/29 08:21:17;;;;;;;;;;;23.30;62.00;;;;;;1540475;76;1402;-59
2022/10/29 08:23:19;;;;;;;;;;;23.30;62.00;;;;;;1534825;76;779;-59
2022/10/29 08:25:21;;;;;;;;;;;23.30;62.00;;;;;;1543127;77;742;-61
2022/10/29 08:27:23;;;;;;;;;;;23.30;61.80;;;;;;1509164;77;1965;-60
2022/10/29 08:29:25;;;;;;;;;;;23.30;61.40;;;;;;1530812;76;702;-60
2022/10/29 08:31:26;;;;;;;;;;;23.20;61.30;;;;;;1538032;77;710;-58
2022/10/29 08:33:28;;;;;;;;;;;23.20;61.30;;;;;;1533449;77;722;-60
2022/10/29 08:35:30;;;;;;;;;;;23.20;61.40;;;;;;1526939;76;1566;-58
2022/10/29 08:37:32;;;;;;;;;;;23.10;61.60;;;;;;1529338;76;1095;-61
2022/10/29 08:39:34;;;;;;;;;;;23.20;61.60;;;;;;1531229;76;728;-59
2022/10/29 08:41:38;;;;;;;;;;;23.20;61.60;;;;;;1531436;76;738;-60
2022/10/29 08:43:50;;;;;;;;;;;23.10;61.60;;;;;;1533643;76;1907;-58
2022/10/29 08:45:53;;;;;;;;;;;23.10;61.60;;;;;;1531832;77;1143;-60
2022/10/29 08:47:57;;;;;;;;;;;23.20;61.60;;;;;;1534928;77;1912;-60
2022/10/29 08:50:00;;;;;;;;;;;23.20;61.60;;;;;;1534123;77;1878;-59
2022/10/29 08:52:18;;;;;;;;;;;23.20;61.60;;;;;;1523426;76;755;-58
2022/10/29 08:54:21;;;;;;;;;;;23.20;61.60;;;;;;1537472;76;1687;-61
2022/10/29 08:56:24;;;;;;;;;;;23.20;61.60;;;;;;1520586;77;1152;-61
2022/10/29 08:58:37;;;;;;;;;;;23.10;61.60;;;;;;1531057;76;1663;-62
2022/10/29 09:00:40;;;;;;;;;;;23.20;61.60;;;;;;1532439;77;680;-59
2022/10/29 09:02:42;;;;;;;;;;;23.20;61.60;;;;;;1528959;77;774;-61
2022/10/29 09:04:44;;;;;;;;;;;23.20;61.60;;;;;;1544322;76;1615;-62
2022/10/29 09:07:03;;;;;;;;;;;23.20;61.60;;;;;;1524561;76;1198;-61
2022/10/29 09:09:18;;;;;;;;;;;23.20;61.50;;;;;;1540891;76;1955;-61
2022/10/29 09:11:38;;;;;;;;;;;23.20;61.60;;;;;;1517250;77;2130;-60
2022/10/29 09:13:42;;;;;;;;;;;23.20;61.50;;;;;;1554998;76;1169;-62
2022/10/29 09:15:54;;;;;;;;;;;23.20;61.50;;;;;;1528551;76;1226;-61
2022/10/29 09:18:13;;;;;;;;;;;23.20;61.60;;;;;;1527079;76;1520;-59
2022/10/29 09:20:24;;;;;;;;;;;23.20;61.50;;;;;;1530855;76;1941;-58
2022/10/29 09:22:46;;;;;;;;;;;23.30;61.50;;;;;;1529387;76;771;-62
2022/10/29 09:25:01;;;;;;;;;;;23.20;61.40;;;;;;1530115;76;724;-58
2022/10/29 09:27:23;;;;;;;;;;;23.20;61.30;;;;;;1544985;76;1966;-60
2022/10/29 09:29:29;;;;;;;;;;;23.30;61.40;;;;;;1552525;76;1920;-59
2022/10/29 09:31:36;;;;;;;;;;;23.20;61.30;;;;;;1539132;76;1903;-59
2022/10/29 09:33:38;;;;;;;;;;;23.30;61.30;;;;;;1536572;76;1043;-59
2022/10/29 09:35:43;;;;;;;;;;;23.30;61.20;;;;;;1539206;76;1103;-58
2022/10/29 09:37:46;;;;;;;;;;;23.50;61.10;;;;;;1543012;76;907;-60
2022/10/29 09:39:48;;;;;;;;;;;23.50;60.90;;;;;;1543043;76;699;-59
2022/10/29 09:41:50;;;;;;;;;;;23.50;60.90;;;;;;1538160;76;791;-59
2022/10/29 09:43:54;;;;;;;;;;;23.40;60.60;;;;;;1535431;76;795;-59
2022/10/29 09:46:06;;;;;;;;;;;23.60;60.60;;;;;;1538083;76;1911;-61
2022/10/29 09:48:09;;;;;;;;;;;23.60;60.50;;;;;;1523392;76;1943;-61
2022/10/29 09:50:19;;;;;;;;;;;23.60;60.40;;;;;;1531992;76;1812;-61
2022/10/29 09:52:22;;;;;;;;;;;23.60;60.60;;;;;;1532915;76;754;-58
2022/10/29 09:54:24;;;;;;;;;;;23.50;60.90;;;;;;1537883;76;2166;-59
2022/10/29 09:56:26;;;;;;;;;;;23.60;60.70;;;;;;1544939;76;1146;-60
2022/10/29 09:58:28;;;;;;;;;;;23.60;60.50;;;;;;1548719;76;698;-59
2022/10/29 10:00:30;;;;;;;;;;;23.70;60.60;;;;;;1546007;76;1564;-59
2022/10/29 10:02:33;;;;;;;;;;;23.60;60.50;;;;;;1525467;76;639;-60
2022/10/29 10:04:39;;;;;;;;;;;23.60;60.60;;;;;;1537823;76;698;-61
2022/10/29 10:07:00;;;;;;;;;;;23.50;60.60;;;;;;1534070;76;1131;-60
2022/10/29 10:09:04;;;;;;;;;;;23.50;60.70;;;;;;1545440;76;1929;-59
2022/10/29 10:11:06;;;;;;;;;;;23.60;60.70;;;;;;1535230;76;747;-60
2022/10/29 10:13:09;;;;;;;;;;;23.70;60.60;;;;;;1540732;75;1064;-60
2022/10/29 10:15:16;;;;;;;;;;;23.60;60.60;;;;;;1548597;75;1726;-58
2022/10/29 10:17:18;;;;;;;;;;;23.70;60.70;;;;;;1551808;76;1231;-59
2022/10/29 10:19:23;;;;;;;;;;;23.80;60.50;;;;;;1559519;75;778;-59
2022/10/29 10:21:25;;;;;;;;;;;23.90;60.40;;;;;;1546854;75;905;-57
2022/10/29 10:23:29;;;;;;;;;;;23.80;60.30;;;;;;1551272;75;765;-58
2022/10/29 10:25:31;;;;;;;;;;;23.80;60.30;;;;;;1540089;76;777;-59
2022/10/29 10:27:33;;;;;;;;;;;23.80;60.10;;;;;;1550843;76;1220;-57
2022/10/29 10:29:35;;;;;;;;;;;23.80;60.20;;;;;;1554164;75;1943;-58
2022/10/29 10:31:38;;;;;;;;;;;23.80;60.10;;;;;;1553334;75;783;-59
2022/10/29 10:33:50;;;;;;;;;;;23.90;60.00;;;;;;1548387;75;744;-57
2022/10/29 10:35:52;;;;;;;;;;;23.80;60.00;;;;;;1560700;76;1836;-58
2022/10/29 10:37:54;;;;;;;;;;;23.90;59.90;;;;;;1558495;75;699;-59
2022/10/29 10:40:01;;;;;;;;;;;23.90;59.80;;;;;;1561276;75;812;-59
2022/10/29 10:42:03;;;;;;;;;;;23.90;59.70;;;;;;1545559;75;1397;-60
2022/10/29 10:44:06;;;;;;;;;;;24.00;59.60;;;;;;1559315;75;761;-60
2022/10/29 10:46:09;;;;;;;;;;;24.00;59.40;;;;;;1544309;76;1205;-60
2022/10/29 10:48:12;;;;;;;;;;;24.00;59.30;;;;;;1550250;75;1939;-58
2022/10/29 10:50:22;;;;;;;;;;;24.00;59.20;;;;;;1547488;75;800;-59
2022/10/29 10:52:28;;;;;;;;;;;24.10;59.20;;;;;;1548221;75;2012;-58
2022/10/29 10:54:35;;;;;;;;;;;24.00;59.20;;;;;;1555343;75;717;-58
2022/10/29 10:56:39;;;;;;;;;;;24.00;59.20;;;;;;1554247;75;1575;-60
2022/10/29 10:58:43;;;;;;;;;;;24.00;59.10;;;;;;1556813;75;1896;-59
2022/10/29 11:00:54;;;;;;;;;;;24.10;59.10;;;;;;1560403;75;778;-59
2022/10/29 11:03:04;;;;;;;;;;;24.10;59.00;;;;;;1544196;75;805;-57
2022/10/29 11:05:10;;;;;;;;;;;24.10;59.00;;;;;;1523157;75;1623;-58
2022/10/29 11:07:12;;;;;;;;;;;24.10;59.10;;;;;;1538676;75;1712;-59
2022/10/29 11:09:34;;;;;;;;;;;24.10;59.00;;;;;;1556225;75;1930;-59
2022/10/29 11:11:39;;;;;;;;;;;24.00;58.90;;;;;;1548890;75;1592;-59
2022/10/29 11:13:41;;;;;;;;;;;24.00;58.90;;;;;;1559491;75;1142;-58
2022/10/29 11:15:45;;;;;;;;;;;24.00;58.90;;;;;;1553034;74;1176;-60
2022/10/29 11:17:51;;;;;;;;;;;24.00;59.00;;;;;;1571800;74;776;-60
2022/10/29 11:19:54;;;;;;;;;;;24.10;59.10;;;;;;1569624;74;710;-56
2022/10/29 11:22:00;;;;;;;;;;;24.10;59.00;;;;;;1562236;74;727;-58
2022/10/29 11:24:04;;;;;;;;;;;24.00;58.90;;;;;;1557481;75;1558;-59
2022/10/29 11:26:10;;;;;;;;;;;24.00;58.80;;;;;;1571959;74;1109;-57
2022/10/29 11:28:25;;;;;;;;;;;24.20;58.90;;;;;;1549480;74;1955;-58
2022/10/29 11:30:27;;;;;;;;;;;24.00;58.80;;;;;;1556976;76;968;-58
2022/10/29 11:32:47;;;;;;;;;;;24.00;58.90;;;;;;1560533;74;781;-60
2022/10/29 11:35:00;;;;;;;;;;;24.00;58.90;;;;;;1575710;74;788;-59
2022/10/29 11:37:03;;;;;;;;;;;24.00;58.90;;;;;;1562906;74;1172;-60
2022/10/29 11:39:10;;;;;;;;;;;24.00;58.90;;;;;;1544950;74;1616;-60
2022/10/29 11:41:30;;;;;;;;;;;24.10;59.00;;;;;;1567008;74;796;-60
2022/10/29 11:43:32;;;;;;;;;;;24.00;58.80;;;;;;1560340;74;710;-60
2022/10/29 11:45:36;;;;;;;;;;;24.00;58.80;;;;;;1564412;74;797;-59
2022/10/29 11:47:42;;;;;;;;;;;24.00;58.90;;;;;;1564671;74;1133;-58
2022/10/29 11:49:55;;;;;;;;;;;24.10;59.00;;;;;;1553710;74;1941;-59
2022/10/29 11:52:01;;;;;;;;;;;24.10;59.00;;;;;;1563227;74;1964;-60
2022/10/29 11:54:08;;;;;;;;;;;24.10;59.00;;;;;;1550873;75;1909;-59
2022/10/29 11:56:14;;;;;;;;;;;24.00;59.10;;;;;;1561246;75;2065;-61
2022/10/29 11:58:20;;;;;;;;;;;24.00;59.20;;;;;;1570013;74;752;-61
2022/10/29 12:00:26;;;;;;;;;;;24.00;59.20;;;;;;1562207;74;748;-59
2022/10/29 12:02:27;;;;;;;;;;;24.00;59.20;;;;;;1557190;74;1226;-59
2022/10/29 12:04:31;;;;;;;;;;;24.00;59.10;;;;;;1554556;74;1825;-59
2022/10/29 12:06:40;;;;;;;;;;;24.00;59.10;;;;;;1568086;74;1298;-61
2022/10/29 12:08:52;;;;;;;;;;;24.00;59.00;;;;;;1554940;74;1934;-60
2022/10/29 12:10:56;;;;;;;;;;;24.00;58.90;;;;;;1486477;78;1030;-61
2022/10/29 12:12:59;;;;;;;;;;;24.20;58.90;;;;;;1550882;74;1913;-59
2022/10/29 12:15:06;;;;;;;;;;;24.10;58.90;;;;;;1548847;76;923;-61